sensor_id;sensor_type;location;lat;lon;timestamp;P1;durP1;ratioP1;P2;durP2;ratioP2
30380;SDS011;17169;50.966;11.038;2024-01-30T00:02:28;12.18;;;5.22;;
30380;SDS011;17169;50.966;11.038;2024-01-30T00:05:30;9.35;;;5.07;;
30380;SDS011;17169;50.966;11.038;2024-01-30T00:08:32;7.90;;;4.43;;
30380;SDS011;17169;50.966;11.038;2024-01-30T00:11:35;9.98;;;5.28;;
30380;SDS011;17169;50.966;11.038;2024-01-30T00:14:37;7.07;;;4.03;;
30380;SDS011;17169;50.966;11.038;2024-01-30T00:17:41;10.05;;;4.90;;
30380;SDS011;17169;50.966;11.038;2024-01-30T00:20:43;11.63;;;5.05;;
30380;SDS011;17169;50.966;11.038;2024-01-30T00:23:45;8.43;;;4.25;;
30380;SDS011;17169;50.966;11.038;2024-01-30T00:26:48;10.02;;;4.97;;
30380;SDS011;17169;50.966;11.038;2024-01-30T00:29:51;12.52;;;5.85;;
30380;SDS011;17169;50.966;11.038;2024-01-30T00:32:54;10.40;;;5.15;;
30380;SDS011;17169;50.966;11.038;2024-01-30T00:35:57;9.82;;;4.90;;
30380;SDS011;17169;50.966;11.038;2024-01-30T00:38:59;9.35;;;4.75;;
30380;SDS011;17169;50.966;11.038;2024-01-30T00:42:02;11.38;;;4.70;;
30380;SDS011;17169;50.966;11.038;2024-01-30T00:45:05;14.10;;;5.70;;
30380;SDS011;17169;50.966;11.038;2024-01-30T00:48:09;9.65;;;5.10;;
30380;SDS011;17169;50.966;11.038;2024-01-30T00:51:11;8.82;;;4.70;;
30380;SDS011;17169;50.966;11.038;2024-01-30T00:54:14;9.30;;;4.68;;
30380;SDS011;17169;50.966;11.038;2024-01-30T00:57:16;10.70;;;4.30;;
30380;SDS011;17169;50.966;11.038;2024-01-30T01:00:18;8.25;;;4.22;;
30380;SDS011;17169;50.966;11.038;2024-01-30T01:03:23;10.55;;;4.93;;
30380;SDS011;17169;50.966;11.038;2024-01-30T01:06:25;8.50;;;4.40;;
30380;SDS011;17169;50.966;11.038;2024-01-30T01:09:27;8.82;;;4.35;;
30380;SDS011;17169;50.966;11.038;2024-01-30T01:12:30;7.22;;;3.92;;
30380;SDS011;17169;50.966;11.038;2024-01-30T01:15:32;8.80;;;4.28;;
30380;SDS011;17169;50.966;11.038;2024-01-30T01:18:36;7.65;;;4.18;;
30380;SDS011;17169;50.966;11.038;2024-01-30T01:21:38;8.75;;;4.63;;
30380;SDS011;17169;50.966;11.038;2024-01-30T01:24:41;7.25;;;4.13;;
30380;SDS011;17169;50.966;11.038;2024-01-30T01:27:43;10.02;;;3.90;;
30380;SDS011;17169;50.966;11.038;2024-01-30T01:30:51;8.07;;;4.03;;
30380;SDS011;17169;50.966;11.038;2024-01-30T01:33:55;7.20;;;3.85;;
30380;SDS011;17169;50.966;11.038;2024-01-30T01:36:57;10.30;;;4.05;;
30380;SDS011;17169;50.966;11.038;2024-01-30T01:40:00;8.48;;;3.95;;
30380;SDS011;17169;50.966;11.038;2024-01-30T01:43:03;7.10;;;3.85;;
30380;SDS011;17169;50.966;11.038;2024-01-30T01:46:06;7.53;;;3.78;;
30380;SDS011;17169;50.966;11.038;2024-01-30T01:49:11;9.55;;;4.43;;
30380;SDS011;17169;50.966;11.038;2024-01-30T01:52:13;7.10;;;3.97;;
30380;SDS011;17169;50.966;11.038;2024-01-30T01:55:16;9.43;;;4.63;;
30380;SDS011;17169;50.966;11.038;2024-01-30T01:58:22;10.90;;;4.05;;
30380;SDS011;17169;50.966;11.038;2024-01-30T02:01:29;9.32;;;4.20;;
30380;SDS011;17169;50.966;11.038;2024-01-30T02:04:34;8.23;;;4.18;;
30380;SDS011;17169;50.966;11.038;2024-01-30T02:07:36;7.88;;;4.18;;
30380;SDS011;17169;50.966;11.038;2024-01-30T02:10:39;8.18;;;3.83;;
30380;SDS011;17169;50.966;11.038;2024-01-30T02:13:41;7.20;;;3.95;;
30380;SDS011;17169;50.966;11.038;2024-01-30T02:16:44;7.50;;;4.13;;
30380;SDS011;17169;50.966;11.038;2024-01-30T02:19:48;8.60;;;4.35;;
30380;SDS011;17169;50.966;11.038;2024-01-30T02:22:52;8.23;;;4.03;;
30380;SDS011;17169;50.966;11.038;2024-01-30T02:25:55;6.93;;;4.05;;
30380;SDS011;17169;50.966;11.038;2024-01-30T02:28:58;8.43;;;4.03;;
30380;SDS011;17169;50.966;11.038;2024-01-30T02:32:00;6.85;;;3.65;;
30380;SDS011;17169;50.966;11.038;2024-01-30T02:35:03;8.77;;;3.72;;
30380;SDS011;17169;50.966;11.038;2024-01-30T02:38:07;7.93;;;4.10;;
30380;SDS011;17169;50.966;11.038;2024-01-30T02:41:09;7.95;;;4.28;;
30380;SDS011;17169;50.966;11.038;2024-01-30T02:44:12;8.65;;;3.90;;
30380;SDS011;17169;50.966;11.038;2024-01-30T02:47:14;6.50;;;4.10;;
30380;SDS011;17169;50.966;11.038;2024-01-30T02:50:17;6.68;;;4.03;;
30380;SDS011;17169;50.966;11.038;2024-01-30T02:53:20;11.90;;;3.78;;
30380;SDS011;17169;50.966;11.038;2024-01-30T02:56:23;6.65;;;3.33;;
30380;SDS011;17169;50.966;11.038;2024-01-30T02:59:25;6.60;;;3.90;;
30380;SDS011;17169;50.966;11.038;2024-01-30T03:02:27;9.27;;;4.00;;
30380;SDS011;17169;50.966;11.038;2024-01-30T03:05:30;8.35;;;3.50;;
30380;SDS011;17169;50.966;11.038;2024-01-30T03:08:33;8.63;;;4.45;;
30380;SDS011;17169;50.966;11.038;2024-01-30T03:11:36;5.30;;;3.63;;
30380;SDS011;17169;50.966;11.038;2024-01-30T03:14:38;6.63;;;3.53;;
30380;SDS011;17169;50.966;11.038;2024-01-30T03:17:41;4.82;;;3.28;;
30380;SDS011;17169;50.966;11.038;2024-01-30T03:20:43;8.10;;;3.58;;
30380;SDS011;17169;50.966;11.038;2024-01-30T03:23:47;6.95;;;3.60;;
30380;SDS011;17169;50.966;11.038;2024-01-30T03:26:49;8.43;;;3.78;;
30380;SDS011;17169;50.966;11.038;2024-01-30T03:29:52;8.65;;;4.10;;
30380;SDS011;17169;50.966;11.038;2024-01-30T03:32:54;6.57;;;4.20;;
30380;SDS011;17169;50.966;11.038;2024-01-30T03:35:56;8.55;;;4.10;;
30380;SDS011;17169;50.966;11.038;2024-01-30T03:39:00;8.32;;;4.15;;
30380;SDS011;17169;50.966;11.038;2024-01-30T03:42:03;8.85;;;4.25;;
30380;SDS011;17169;50.966;11.038;2024-01-30T03:45:06;10.55;;;4.30;;
30380;SDS011;17169;50.966;11.038;2024-01-30T03:48:09;7.75;;;3.83;;
30380;SDS011;17169;50.966;11.038;2024-01-30T03:51:11;10.18;;;4.20;;
30380;SDS011;17169;50.966;11.038;2024-01-30T03:54:16;9.57;;;4.53;;
30380;SDS011;17169;50.966;11.038;2024-01-30T03:57:19;6.65;;;3.67;;
30380;SDS011;17169;50.966;11.038;2024-01-30T04:00:21;7.70;;;4.05;;
30380;SDS011;17169;50.966;11.038;2024-01-30T04:03:24;7.20;;;4.28;;
30380;SDS011;17169;50.966;11.038;2024-01-30T04:06:26;6.80;;;4.00;;
30380;SDS011;17169;50.966;11.038;2024-01-30T04:09:30;8.52;;;4.40;;
30380;SDS011;17169;50.966;11.038;2024-01-30T04:12:33;10.97;;;4.53;;
30380;SDS011;17169;50.966;11.038;2024-01-30T04:15:35;6.50;;;3.75;;
30380;SDS011;17169;50.966;11.038;2024-01-30T04:18:38;11.32;;;4.50;;
30380;SDS011;17169;50.966;11.038;2024-01-30T04:21:40;8.38;;;4.35;;
30380;SDS011;17169;50.966;11.038;2024-01-30T04:24:44;9.90;;;4.60;;
30380;SDS011;17169;50.966;11.038;2024-01-30T04:27:46;7.38;;;4.10;;
30380;SDS011;17169;50.966;11.038;2024-01-30T04:30:48;9.07;;;4.32;;
30380;SDS011;17169;50.966;11.038;2024-01-30T04:33:51;10.07;;;4.25;;
30380;SDS011;17169;50.966;11.038;2024-01-30T04:36:53;8.43;;;4.13;;
30380;SDS011;17169;50.966;11.038;2024-01-30T04:39:57;8.15;;;4.18;;
30380;SDS011;17169;50.966;11.038;2024-01-30T04:42:59;7.35;;;3.70;;
30380;SDS011;17169;50.966;11.038;2024-01-30T04:46:02;10.15;;;4.70;;
30380;SDS011;17169;50.966;11.038;2024-01-30T04:49:05;9.13;;;3.80;;
30380;SDS011;17169;50.966;11.038;2024-01-30T04:52:08;8.57;;;4.00;;
30380;SDS011;17169;50.966;11.038;2024-01-30T04:55:12;6.70;;;4.10;;
30380;SDS011;17169;50.966;11.038;2024-01-30T04:58:14;9.18;;;3.95;;
30380;SDS011;17169;50.966;11.038;2024-01-30T05:01:17;7.15;;;4.00;;
30380;SDS011;17169;50.966;11.038;2024-01-30T05:04:19;9.07;;;3.78;;
30380;SDS011;17169;50.966;11.038;2024-01-30T05:07:22;7.53;;;3.40;;
30380;SDS011;17169;50.966;11.038;2024-01-30T05:10:27;7.65;;;3.67;;
30380;SDS011;17169;50.966;11.038;2024-01-30T05:13:30;5.90;;;3.47;;
30380;SDS011;17169;50.966;11.038;2024-01-30T05:16:32;6.72;;;4.20;;
30380;SDS011;17169;50.966;11.038;2024-01-30T05:19:35;6.63;;;3.90;;
30380;SDS011;17169;50.966;11.038;2024-01-30T05:22:37;7.35;;;3.83;;
30380;SDS011;17169;50.966;11.038;2024-01-30T05:25:46;7.82;;;4.25;;
30380;SDS011;17169;50.966;11.038;2024-01-30T05:28:49;6.18;;;3.30;;
30380;SDS011;17169;50.966;11.038;2024-01-30T05:31:51;6.85;;;3.88;;
30380;SDS011;17169;50.966;11.038;2024-01-30T05:34:53;9.70;;;3.47;;
30380;SDS011;17169;50.966;11.038;2024-01-30T05:37:56;7.47;;;3.72;;
30380;SDS011;17169;50.966;11.038;2024-01-30T05:40:59;9.07;;;3.63;;
30380;SDS011;17169;50.966;11.038;2024-01-30T05:44:02;7.68;;;3.72;;
30380;SDS011;17169;50.966;11.038;2024-01-30T05:47:04;9.32;;;4.20;;
30380;SDS011;17169;50.966;11.038;2024-01-30T05:50:07;8.73;;;3.70;;
30380;SDS011;17169;50.966;11.038;2024-01-30T05:53:09;5.90;;;3.53;;
30380;SDS011;17169;50.966;11.038;2024-01-30T05:56:13;7.60;;;3.78;;
30380;SDS011;17169;50.966;11.038;2024-01-30T05:59:16;8.02;;;3.90;;
30380;SDS011;17169;50.966;11.038;2024-01-30T06:02:18;9.40;;;3.92;;
30380;SDS011;17169;50.966;11.038;2024-01-30T06:05:20;7.45;;;3.97;;
30380;SDS011;17169;50.966;11.038;2024-01-30T06:08:23;7.15;;;3.90;;
30380;SDS011;17169;50.966;11.038;2024-01-30T06:11:26;9.25;;;4.13;;
30380;SDS011;17169;50.966;11.038;2024-01-30T06:14:29;7.82;;;3.67;;
30380;SDS011;17169;50.966;11.038;2024-01-30T06:17:31;7.70;;;4.10;;
30380;SDS011;17169;50.966;11.038;2024-01-30T06:20:34;11.98;;;4.35;;
30380;SDS011;17169;50.966;11.038;2024-01-30T06:23:36;9.60;;;3.80;;
30380;SDS011;17169;50.966;11.038;2024-01-30T06:26:40;7.40;;;3.55;;
30380;SDS011;17169;50.966;11.038;2024-01-30T06:29:43;8.40;;;4.00;;
30380;SDS011;17169;50.966;11.038;2024-01-30T06:32:45;6.75;;;3.70;;
30380;SDS011;17169;50.966;11.038;2024-01-30T06:35:48;10.73;;;3.80;;
30380;SDS011;17169;50.966;11.038;2024-01-30T06:38:50;8.52;;;4.00;;
30380;SDS011;17169;50.966;11.038;2024-01-30T06:41:54;7.68;;;4.20;;
30380;SDS011;17169;50.966;11.038;2024-01-30T06:44:56;9.07;;;3.80;;
30380;SDS011;17169;50.966;11.038;2024-01-30T06:47:58;8.70;;;4.03;;
30380;SDS011;17169;50.966;11.038;2024-01-30T06:51:02;11.23;;;4.95;;
30380;SDS011;17169;50.966;11.038;2024-01-30T06:54:04;9.48;;;4.35;;
30380;SDS011;17169;50.966;11.038;2024-01-30T06:57:08;7.75;;;3.90;;
30380;SDS011;17169;50.966;11.038;2024-01-30T07:00:12;9.43;;;5.00;;
30380;SDS011;17169;50.966;11.038;2024-01-30T07:03:16;9.25;;;4.50;;
30380;SDS011;17169;50.966;11.038;2024-01-30T07:06:19;7.07;;;4.10;;
30380;SDS011;17169;50.966;11.038;2024-01-30T07:09:22;10.60;;;4.00;;
30380;SDS011;17169;50.966;11.038;2024-01-30T07:12:26;7.30;;;3.88;;
30380;SDS011;17169;50.966;11.038;2024-01-30T07:15:28;6.45;;;3.55;;
30380;SDS011;17169;50.966;11.038;2024-01-30T07:18:31;7.50;;;4.10;;
30380;SDS011;17169;50.966;11.038;2024-01-30T07:21:33;9.40;;;4.18;;
30380;SDS011;17169;50.966;11.038;2024-01-30T07:24:35;9.68;;;4.15;;
30380;SDS011;17169;50.966;11.038;2024-01-30T07:27:39;9.32;;;4.47;;
30380;SDS011;17169;50.966;11.038;2024-01-30T07:30:42;7.80;;;4.22;;
30380;SDS011;17169;50.966;11.038;2024-01-30T07:33:44;8.20;;;4.97;;
30380;SDS011;17169;50.966;11.038;2024-01-30T07:36:47;8.50;;;4.50;;
30380;SDS011;17169;50.966;11.038;2024-01-30T07:39:49;10.18;;;4.68;;
30380;SDS011;17169;50.966;11.038;2024-01-30T07:42:53;7.80;;;3.72;;
30380;SDS011;17169;50.966;11.038;2024-01-30T07:45:55;7.65;;;4.50;;
30380;SDS011;17169;50.966;11.038;2024-01-30T07:48:58;8.05;;;4.60;;
30380;SDS011;17169;50.966;11.038;2024-01-30T07:52:00;14.35;;;4.90;;
30380;SDS011;17169;50.966;11.038;2024-01-30T07:55:05;9.30;;;4.32;;
30380;SDS011;17169;50.966;11.038;2024-01-30T07:58:10;8.27;;;4.55;;
30380;SDS011;17169;50.966;11.038;2024-01-30T08:01:14;10.63;;;5.10;;
30380;SDS011;17169;50.966;11.038;2024-01-30T08:04:17;8.13;;;4.80;;
30380;SDS011;17169;50.966;11.038;2024-01-30T08:07:19;9.88;;;5.07;;
30380;SDS011;17169;50.966;11.038;2024-01-30T08:10:22;8.15;;;4.72;;
30380;SDS011;17169;50.966;11.038;2024-01-30T08:13:27;10.88;;;5.05;;
30380;SDS011;17169;50.966;11.038;2024-01-30T08:16:29;13.40;;;5.00;;
30380;SDS011;17169;50.966;11.038;2024-01-30T08:19:31;10.43;;;4.82;;
30380;SDS011;17169;50.966;11.038;2024-01-30T08:22:34;8.90;;;4.97;;
30380;SDS011;17169;50.966;11.038;2024-01-30T08:25:36;8.13;;;4.78;;
30380;SDS011;17169;50.966;11.038;2024-01-30T08:28:40;11.40;;;5.20;;
30380;SDS011;17169;50.966;11.038;2024-01-30T08:31:42;11.20;;;4.82;;
30380;SDS011;17169;50.966;11.038;2024-01-30T08:34:46;12.52;;;5.70;;
30380;SDS011;17169;50.966;11.038;2024-01-30T08:37:49;8.60;;;5.10;;
30380;SDS011;17169;50.966;11.038;2024-01-30T08:40:51;13.95;;;5.32;;
30380;SDS011;17169;50.966;11.038;2024-01-30T08:43:55;11.20;;;5.55;;
30380;SDS011;17169;50.966;11.038;2024-01-30T08:46:57;12.70;;;5.70;;
30380;SDS011;17169;50.966;11.038;2024-01-30T08:49:59;13.52;;;6.65;;
30380;SDS011;17169;50.966;11.038;2024-01-30T08:53:02;17.17;;;7.55;;
30380;SDS011;17169;50.966;11.038;2024-01-30T08:56:05;19.60;;;7.55;;
30380;SDS011;17169;50.966;11.038;2024-01-30T08:59:09;15.90;;;7.35;;
30380;SDS011;17169;50.966;11.038;2024-01-30T09:02:13;16.95;;;8.27;;
30380;SDS011;17169;50.966;11.038;2024-01-30T09:05:16;18.55;;;8.07;;
30380;SDS011;17169;50.966;11.038;2024-01-30T09:08:19;17.13;;;8.63;;
30380;SDS011;17169;50.966;11.038;2024-01-30T09:11:22;21.63;;;9.30;;
30380;SDS011;17169;50.966;11.038;2024-01-30T09:14:25;20.67;;;8.80;;
30380;SDS011;17169;50.966;11.038;2024-01-30T09:17:28;26.95;;;9.57;;
30380;SDS011;17169;50.966;11.038;2024-01-30T09:20:30;15.88;;;7.40;;
30380;SDS011;17169;50.966;11.038;2024-01-30T09:23:32;20.52;;;8.23;;
30380;SDS011;17169;50.966;11.038;2024-01-30T09:26:35;20.33;;;8.23;;
30380;SDS011;17169;50.966;11.038;2024-01-30T09:29:39;16.70;;;7.05;;
30380;SDS011;17169;50.966;11.038;2024-01-30T09:32:41;12.48;;;6.97;;
30380;SDS011;17169;50.966;11.038;2024-01-30T09:35:44;11.27;;;6.28;;
30380;SDS011;17169;50.966;11.038;2024-01-30T09:38:46;10.70;;;5.68;;
30380;SDS011;17169;50.966;11.038;2024-01-30T09:41:49;12.32;;;5.85;;
30380;SDS011;17169;50.966;11.038;2024-01-30T09:44:59;10.77;;;5.40;;
30380;SDS011;17169;50.966;11.038;2024-01-30T09:48:03;10.20;;;5.93;;
30380;SDS011;17169;50.966;11.038;2024-01-30T09:51:06;10.50;;;5.63;;
30380;SDS011;17169;50.966;11.038;2024-01-30T09:54:09;9.10;;;4.75;;
30380;SDS011;17169;50.966;11.038;2024-01-30T10:00:18;10.00;;;5.60;;
30380;SDS011;17169;50.966;11.038;2024-01-30T10:03:23;14.15;;;5.55;;
30380;SDS011;17169;50.966;11.038;2024-01-30T10:06:26;13.05;;;6.25;;
30380;SDS011;17169;50.966;11.038;2024-01-30T10:09:31;14.60;;;5.97;;
30380;SDS011;17169;50.966;11.038;2024-01-30T10:12:34;12.82;;;5.90;;
30380;SDS011;17169;50.966;11.038;2024-01-30T10:15:38;15.30;;;6.47;;
30380;SDS011;17169;50.966;11.038;2024-01-30T10:18:41;21.13;;;8.60;;
30380;SDS011;17169;50.966;11.038;2024-01-30T10:21:43;13.90;;;6.57;;
30380;SDS011;17169;50.966;11.038;2024-01-30T10:24:46;12.55;;;5.57;;
30380;SDS011;17169;50.966;11.038;2024-01-30T10:27:52;11.90;;;5.00;;
30380;SDS011;17169;50.966;11.038;2024-01-30T10:31:00;11.18;;;4.85;;
30380;SDS011;17169;50.966;11.038;2024-01-30T10:34:04;16.75;;;6.03;;
30380;SDS011;17169;50.966;11.038;2024-01-30T10:37:07;12.98;;;6.13;;
30380;SDS011;17169;50.966;11.038;2024-01-30T10:40:13;12.35;;;6.15;;
30380;SDS011;17169;50.966;11.038;2024-01-30T10:43:16;10.20;;;6.05;;
30380;SDS011;17169;50.966;11.038;2024-01-30T10:46:22;16.27;;;8.43;;
30380;SDS011;17169;50.966;11.038;2024-01-30T10:49:31;17.08;;;8.48;;
30380;SDS011;17169;50.966;11.038;2024-01-30T10:52:35;16.98;;;8.32;;
30380;SDS011;17169;50.966;11.038;2024-01-30T10:55:38;16.83;;;8.23;;
30380;SDS011;17169;50.966;11.038;2024-01-30T10:58:41;16.88;;;8.93;;
30380;SDS011;17169;50.966;11.038;2024-01-30T11:01:45;23.52;;;9.02;;
30380;SDS011;17169;50.966;11.038;2024-01-30T11:04:47;18.77;;;9.25;;
30380;SDS011;17169;50.966;11.038;2024-01-30T11:07:50;18.83;;;8.85;;
30380;SDS011;17169;50.966;11.038;2024-01-30T11:10:55;26.60;;;8.63;;
30380;SDS011;17169;50.966;11.038;2024-01-30T11:14:00;15.57;;;10.02;;
30380;SDS011;17169;50.966;11.038;2024-01-30T11:17:05;22.80;;;9.48;;
30380;SDS011;17169;50.966;11.038;2024-01-30T11:20:09;18.73;;;9.80;;
30380;SDS011;17169;50.966;11.038;2024-01-30T11:23:13;29.83;;;11.57;;
30380;SDS011;17169;50.966;11.038;2024-01-30T11:26:16;34.33;;;13.13;;
30380;SDS011;17169;50.966;11.038;2024-01-30T11:29:18;25.60;;;11.57;;
30380;SDS011;17169;50.966;11.038;2024-01-30T11:32:23;26.15;;;12.63;;
30380;SDS011;17169;50.966;11.038;2024-01-30T11:35:25;26.20;;;11.05;;
30380;SDS011;17169;50.966;11.038;2024-01-30T11:38:28;28.50;;;11.15;;
30380;SDS011;17169;50.966;11.038;2024-01-30T11:41:30;25.80;;;11.43;;
30380;SDS011;17169;50.966;11.038;2024-01-30T11:44:34;19.40;;;11.50;;
30380;SDS011;17169;50.966;11.038;2024-01-30T11:47:37;20.63;;;10.70;;
30380;SDS011;17169;50.966;11.038;2024-01-30T11:50:40;24.13;;;11.63;;
30380;SDS011;17169;50.966;11.038;2024-01-30T11:53:43;25.80;;;11.40;;
30380;SDS011;17169;50.966;11.038;2024-01-30T11:56:45;28.52;;;11.50;;
30380;SDS011;17169;50.966;11.038;2024-01-30T11:59:48;21.27;;;10.98;;
30380;SDS011;17169;50.966;11.038;2024-01-30T12:02:52;22.17;;;11.05;;
30380;SDS011;17169;50.966;11.038;2024-01-30T12:05:56;23.45;;;10.70;;
30380;SDS011;17169;50.966;11.038;2024-01-30T12:08:59;20.35;;;11.45;;
30380;SDS011;17169;50.966;11.038;2024-01-30T12:12:05;25.70;;;10.27;;
30380;SDS011;17169;50.966;11.038;2024-01-30T12:15:12;21.98;;;10.77;;
30380;SDS011;17169;50.966;11.038;2024-01-30T12:18:18;21.17;;;11.50;;
30380;SDS011;17169;50.966;11.038;2024-01-30T12:21:20;20.48;;;11.18;;
30380;SDS011;17169;50.966;11.038;2024-01-30T12:24:24;18.33;;;10.25;;
30380;SDS011;17169;50.966;11.038;2024-01-30T12:27:27;20.95;;;11.43;;
30380;SDS011;17169;50.966;11.038;2024-01-30T12:30:29;19.08;;;10.40;;
30380;SDS011;17169;50.966;11.038;2024-01-30T12:33:33;22.30;;;9.90;;
30380;SDS011;17169;50.966;11.038;2024-01-30T12:36:37;19.05;;;11.50;;
30380;SDS011;17169;50.966;11.038;2024-01-30T12:39:40;22.02;;;11.68;;
30380;SDS011;17169;50.966;11.038;2024-01-30T12:42:42;18.60;;;10.98;;
30380;SDS011;17169;50.966;11.038;2024-01-30T12:45:46;22.02;;;11.40;;
30380;SDS011;17169;50.966;11.038;2024-01-30T12:48:50;23.05;;;13.00;;
30380;SDS011;17169;50.966;11.038;2024-01-30T12:51:53;20.17;;;10.82;;
30380;SDS011;17169;50.966;11.038;2024-01-30T12:54:55;19.92;;;10.40;;
30380;SDS011;17169;50.966;11.038;2024-01-30T12:57:58;20.23;;;10.63;;
30380;SDS011;17169;50.966;11.038;2024-01-30T13:01:00;18.42;;;11.07;;
30380;SDS011;17169;50.966;11.038;2024-01-30T13:04:04;20.13;;;10.77;;
30380;SDS011;17169;50.966;11.038;2024-01-30T13:07:07;20.67;;;9.30;;
30380;SDS011;17169;50.966;11.038;2024-01-30T13:10:09;18.30;;;9.85;;
30380;SDS011;17169;50.966;11.038;2024-01-30T13:13:12;13.77;;;9.05;;
30380;SDS011;17169;50.966;11.038;2024-01-30T13:16:14;15.77;;;9.45;;
30380;SDS011;17169;50.966;11.038;2024-01-30T13:19:18;30.25;;;9.35;;
30380;SDS011;17169;50.966;11.038;2024-01-30T13:22:20;16.92;;;10.30;;
30380;SDS011;17169;50.966;11.038;2024-01-30T13:25:23;20.50;;;9.40;;
30380;SDS011;17169;50.966;11.038;2024-01-30T13:28:25;23.77;;;11.38;;
30380;SDS011;17169;50.966;11.038;2024-01-30T13:31:29;24.17;;;10.52;;
30380;SDS011;17169;50.966;11.038;2024-01-30T13:34:33;21.55;;;11.93;;
30380;SDS011;17169;50.966;11.038;2024-01-30T13:37:36;23.00;;;11.25;;
30380;SDS011;17169;50.966;11.038;2024-01-30T13:40:38;24.67;;;11.43;;
30380;SDS011;17169;50.966;11.038;2024-01-30T13:43:41;23.08;;;10.55;;
30380;SDS011;17169;50.966;11.038;2024-01-30T13:46:43;21.83;;;10.98;;
30380;SDS011;17169;50.966;11.038;2024-01-30T13:49:48;26.35;;;10.90;;
30380;SDS011;17169;50.966;11.038;2024-01-30T13:52:50;22.02;;;9.45;;
30380;SDS011;17169;50.966;11.038;2024-01-30T13:55:53;22.30;;;9.15;;
30380;SDS011;17169;50.966;11.038;2024-01-30T13:58:55;14.30;;;9.07;;
30380;SDS011;17169;50.966;11.038;2024-01-30T14:01:58;19.35;;;8.70;;
30380;SDS011;17169;50.966;11.038;2024-01-30T14:05:02;21.52;;;8.45;;
30380;SDS011;17169;50.966;11.038;2024-01-30T14:08:05;14.75;;;7.68;;
30380;SDS011;17169;50.966;11.038;2024-01-30T14:11:09;14.68;;;7.25;;
30380;SDS011;17169;50.966;11.038;2024-01-30T14:14:11;16.33;;;7.80;;
30380;SDS011;17169;50.966;11.038;2024-01-30T14:17:14;17.30;;;7.45;;
30380;SDS011;17169;50.966;11.038;2024-01-30T14:20:17;19.90;;;7.22;;
30380;SDS011;17169;50.966;11.038;2024-01-30T14:23:20;13.50;;;6.72;;
30380;SDS011;17169;50.966;11.038;2024-01-30T14:26:22;19.70;;;7.95;;
30380;SDS011;17169;50.966;11.038;2024-01-30T14:29:25;11.30;;;6.45;;
30380;SDS011;17169;50.966;11.038;2024-01-30T14:32:27;13.10;;;5.15;;
30380;SDS011;17169;50.966;11.038;2024-01-30T14:35:31;11.05;;;5.15;;
30380;SDS011;17169;50.966;11.038;2024-01-30T14:38:34;8.32;;;4.07;;
30380;SDS011;17169;50.966;11.038;2024-01-30T14:41:36;10.25;;;3.95;;
30380;SDS011;17169;50.966;11.038;2024-01-30T14:44:39;7.53;;;3.83;;
30380;SDS011;17169;50.966;11.038;2024-01-30T14:47:41;10.18;;;3.72;;
30380;SDS011;17169;50.966;11.038;2024-01-30T14:50:45;6.47;;;3.50;;
30380;SDS011;17169;50.966;11.038;2024-01-30T14:53:48;10.45;;;3.95;;
30380;SDS011;17169;50.966;11.038;2024-01-30T14:56:50;10.43;;;4.18;;
30380;SDS011;17169;50.966;11.038;2024-01-30T14:59:52;7.93;;;3.80;;
30380;SDS011;17169;50.966;11.038;2024-01-30T15:02:55;6.68;;;3.72;;
30380;SDS011;17169;50.966;11.038;2024-01-30T15:05:58;7.68;;;3.60;;
30380;SDS011;17169;50.966;11.038;2024-01-30T15:09:01;8.15;;;3.47;;
30380;SDS011;17169;50.966;11.038;2024-01-30T15:12:04;6.50;;;4.50;;
30380;SDS011;17169;50.966;11.038;2024-01-30T15:15:07;15.80;;;4.30;;
30380;SDS011;17169;50.966;11.038;2024-01-30T15:18:09;9.05;;;3.85;;
30380;SDS011;17169;50.966;11.038;2024-01-30T15:21:13;9.50;;;4.00;;
30380;SDS011;17169;50.966;11.038;2024-01-30T15:24:20;7.45;;;4.00;;
30380;SDS011;17169;50.966;11.038;2024-01-30T15:27:25;7.25;;;4.18;;
30380;SDS011;17169;50.966;11.038;2024-01-30T15:30:27;8.73;;;4.80;;
30380;SDS011;17169;50.966;11.038;2024-01-30T15:33:29;7.25;;;4.05;;
30380;SDS011;17169;50.966;11.038;2024-01-30T15:36:33;10.40;;;4.38;;
30380;SDS011;17169;50.966;11.038;2024-01-30T15:39:36;11.23;;;4.45;;
30380;SDS011;17169;50.966;11.038;2024-01-30T15:42:38;8.25;;;4.50;;
30380;SDS011;17169;50.966;11.038;2024-01-30T15:45:40;7.90;;;3.92;;
30380;SDS011;17169;50.966;11.038;2024-01-30T15:48:43;7.88;;;4.00;;
30380;SDS011;17169;50.966;11.038;2024-01-30T15:51:46;9.45;;;3.85;;
30380;SDS011;17169;50.966;11.038;2024-01-30T15:54:49;6.40;;;3.90;;
30380;SDS011;17169;50.966;11.038;2024-01-30T15:57:51;7.45;;;4.30;;
30380;SDS011;17169;50.966;11.038;2024-01-30T16:00:54;9.02;;;4.25;;
30380;SDS011;17169;50.966;11.038;2024-01-30T16:03:56;7.45;;;4.43;;
30380;SDS011;17169;50.966;11.038;2024-01-30T16:07:00;10.70;;;4.18;;
30380;SDS011;17169;50.966;11.038;2024-01-30T16:10:02;8.50;;;4.53;;
30380;SDS011;17169;50.966;11.038;2024-01-30T16:13:05;9.98;;;4.88;;
30380;SDS011;17169;50.966;11.038;2024-01-30T16:16:07;10.90;;;5.55;;
30380;SDS011;17169;50.966;11.038;2024-01-30T16:19:10;10.55;;;4.82;;
30380;SDS011;17169;50.966;11.038;2024-01-30T16:22:14;9.77;;;4.82;;
30380;SDS011;17169;50.966;11.038;2024-01-30T16:25:16;8.90;;;4.25;;
30380;SDS011;17169;50.966;11.038;2024-01-30T16:28:19;9.98;;;4.75;;
30380;SDS011;17169;50.966;11.038;2024-01-30T16:31:25;17.67;;;4.30;;
30380;SDS011;17169;50.966;11.038;2024-01-30T16:34:28;12.32;;;6.38;;
30380;SDS011;17169;50.966;11.038;2024-01-30T16:37:31;10.35;;;5.65;;
30380;SDS011;17169;50.966;11.038;2024-01-30T16:40:34;7.60;;;4.70;;
30380;SDS011;17169;50.966;11.038;2024-01-30T16:43:36;10.40;;;4.35;;
30380;SDS011;17169;50.966;11.038;2024-01-30T16:46:38;12.55;;;3.92;;
30380;SDS011;17169;50.966;11.038;2024-01-30T16:49:41;9.48;;;4.53;;
30380;SDS011;17169;50.966;11.038;2024-01-30T16:52:44;10.45;;;4.28;;
30380;SDS011;17169;50.966;11.038;2024-01-30T16:55:47;8.02;;;4.20;;
30380;SDS011;17169;50.966;11.038;2024-01-30T16:58:50;7.30;;;3.85;;
30380;SDS011;17169;50.966;11.038;2024-01-30T17:01:52;9.18;;;4.43;;
30380;SDS011;17169;50.966;11.038;2024-01-30T17:04:54;10.50;;;4.70;;
30380;SDS011;17169;50.966;11.038;2024-01-30T17:08:00;9.27;;;4.30;;
30380;SDS011;17169;50.966;11.038;2024-01-30T17:11:03;10.90;;;4.60;;
30380;SDS011;17169;50.966;11.038;2024-01-30T17:14:05;14.65;;;4.88;;
30380;SDS011;17169;50.966;11.038;2024-01-30T17:17:07;7.88;;;4.40;;
30380;SDS011;17169;50.966;11.038;2024-01-30T17:20:11;10.18;;;4.20;;
30380;SDS011;17169;50.966;11.038;2024-01-30T17:23:14;8.70;;;4.30;;
30380;SDS011;17169;50.966;11.038;2024-01-30T17:26:17;9.07;;;4.60;;
30380;SDS011;17169;50.966;11.038;2024-01-30T17:29:21;7.22;;;3.75;;
30380;SDS011;17169;50.966;11.038;2024-01-30T17:32:23;8.02;;;4.47;;
30380;SDS011;17169;50.966;11.038;2024-01-30T17:35:26;9.88;;;4.68;;
30380;SDS011;17169;50.966;11.038;2024-01-30T17:38:29;17.55;;;5.10;;
30380;SDS011;17169;50.966;11.038;2024-01-30T17:41:32;11.85;;;5.53;;
30380;SDS011;17169;50.966;11.038;2024-01-30T17:44:34;10.15;;;4.75;;
30380;SDS011;17169;50.966;11.038;2024-01-30T17:47:40;10.60;;;4.80;;
30380;SDS011;17169;50.966;11.038;2024-01-30T17:50:42;14.43;;;5.47;;
30380;SDS011;17169;50.966;11.038;2024-01-30T17:53:46;11.55;;;5.07;;
30380;SDS011;17169;50.966;11.038;2024-01-30T17:56:49;10.55;;;5.15;;
30380;SDS011;17169;50.966;11.038;2024-01-30T17:59:52;10.88;;;5.65;;